Bei Facebook empfehlenBei Twitter postenGoogle plusPinterest

Das Wetter im Erzgebirge am 31.07.2017

Wetter und Klima am 31.07.2017 Holzhau im Erzgebirge (630m ü.NN)
Letzte gemessene Temperatur und Uhrzeit der Messung23:45:00 Uhr16.30 °C
Temperatur (Maximum / Höchstwert) und Uhrzeit der Messung16:00:00 Uhr29.20 °C
Temperatur (Minimum / Tiefstwert) und Uhrzeit der Messung01:30:0014.10 °C
Errechneter Absolutwert der Temperaturschwankungen zwischen Tmin und Tmax des Tages15.10 K
Errechnete Tagesmitteltemperatur20.96771 °C
Gesamt - Niederschlag des Tages (in flüssiger Form)0.52 Liter / m²
Luftdruck (Maximum / Höchstwert) und Zeitpunkt der Messung18:45:00 Uhr1015.00 hPa
Luftdruck (Minimum / Tiefstwert) und Zeitpunkt der Messung04:00:00 Uhr1012.00 hPa
Errechneter Absolutwert der Luftdruckschwankungen des Tages3.00 hPa
Höchste gemessene Windgeschwindigkeit und Uhrzeit der Messung19:00:00 Uhr37.44 km/h
Errechnete Windhäufigkeit in Relation zu den Messwerten des Tages8.33333 %
Niedrigste Windkühle (Windchill) und Zeitpunkt der Messung01:30:00 Uhr14.10 °C
Taupunkt (Maximum / Höchstwert) und Uhrzeit der Messung18:15:00 Uhr18.30 °C
Taupunkt (Minimum / Tiefstwert) und Uhrzeit der Messung01:30:0012.80 °C
Anzahl der automatisch eingelesenen Messwerte 96

Detaillierte Wetter- und Klima- Messwerte für den 31.07.2017 in Holzhau im Erzgebirge (630m ü.NN)
ZeitTemperaturLuftdruckRel. LuftfeuchteWindWindrichtungWindchillTaupunktNiederschlag l/m²
23:45:0016.30 °C1014.70 hPa85.00 %13.80 °C0.52
23:30:0016.70 °C1014.80 hPa83.00 %13.80 °C0.52
23:15:0017.30 °C1014.80 hPa82.00 %14.20 °C0.52
23:00:0017.60 °C1014.70 hPa82.00 %14.50 °C0.52
22:45:0017.90 °C1014.70 hPa82.00 %14.80 °C0.52
22:30:0018.30 °C1014.50 hPa82.00 %15.20 °C0.52
22:15:0018.40 °C1014.40 hPa82.00 %15.30 °C0.52
22:00:0018.80 °C1014.30 hPa82.00 %15.70 °C0.52
21:45:0018.90 °C1014.10 hPa82.00 %15.80 °C0.52
21:30:0019.10 °C1014.10 hPa82.00 %16.00 °C0.52
21:15:0019.20 °C1014.30 hPa82.00 %16.10 °C0.52
21:00:0019.40 °C1014.70 hPa80.00 %15.90 °C0.52
20:45:0020.10 °C1014.60 hPa78.00 %16.10 °C0.52
20:30:0020.60 °C1014.60 hPa77.00 %16.40 °C0.52
20:15:0020.90 °C1014.30 hPa76.00 %16.50 °C0.52
20:00:0021.40 °C1014.10 hPa73.00 %16.40 °C0.52
19:45:0021.80 °C1014.00 hPa72.00 %16.50 °C0.52
19:30:0022.30 °C1013.80 hPa72.00 %17.00 °C0.52
19:15:0023.80 °C1014.80 hPa67.00 %17.30 °C0.52
19:00:0024.80 °C1014.90 hPa64.00 %37.44 km/hOSO26.30 °C17.50 °C0.52
18:45:0025.60 °C1015.00 hPa63.00 %18.00 °C0.52
18:30:0026.50 °C1014.90 hPa60.00 %18.10 °C0.52
18:15:0027.30 °C1014.80 hPa58.00 %18.30 °C0.52
18:00:0027.80 °C1014.60 hPa56.00 %18.20 °C0.52
17:45:0028.20 °C1014.70 hPa53.00 %17.70 °C0.52
17:30:0028.40 °C1014.90 hPa51.00 %17.30 °C0.52
17:15:0028.30 °C1014.90 hPa50.00 %16.90 °C0.52
17:00:0028.10 °C1014.80 hPa50.00 %16.70 °C0.52
16:45:0028.10 °C1014.80 hPa50.00 %16.70 °C0.52
16:30:0028.80 °C1014.80 hPa51.00 %17.70 °C0.52
16:15:0028.90 °C1014.70 hPa48.00 %16.80 °C0.52
16:00:0029.20 °C1014.60 hPa45.00 %16.00 °C0.52
15:45:0029.20 °C1014.50 hPa50.00 %17.70 °C0.52
15:30:0028.90 °C1014.80 hPa47.00 %16.50 °C0.52
15:15:0029.10 °C1014.50 hPa51.00 %24.48 km/hW31.40 °C17.90 °C0.52
15:00:0028.10 °C1014.70 hPa50.00 %16.70 °C0.52
14:45:0027.10 °C1014.80 hPa51.00 %25.92 km/hWSW29.10 °C16.10 °C0.52
14:30:0027.40 °C1014.60 hPa50.00 %16.10 °C0.52
14:15:0028.00 °C1015.00 hPa50.00 %16.60 °C0.52
14:00:0028.30 °C1014.80 hPa50.00 %16.90 °C0.52
13:45:0027.60 °C1014.90 hPa52.00 %36.36 km/hWSW29.70 °C16.90 °C0.52
13:30:0027.60 °C1014.60 hPa52.00 %16.90 °C0.52
13:15:0027.00 °C1014.80 hPa53.00 %16.60 °C0.52
13:00:0027.10 °C1014.90 hPa53.00 %16.70 °C0.52
12:45:0026.90 °C1015.00 hPa53.00 %16.50 °C0.52
12:30:0026.60 °C1015.00 hPa51.00 %15.60 °C0.52
12:15:0026.40 °C1014.90 hPa53.00 %16.00 °C0.52
12:00:0026.30 °C1014.80 hPa53.00 %16.00 °C0.52
11:45:0025.60 °C1014.90 hPa55.00 %15.90 °C0.52
11:30:0025.20 °C1014.80 hPa52.00 %33.84 km/hSW26.80 °C14.60 °C0.52
11:15:0025.40 °C1014.80 hPa53.00 %23.40 km/hSW27.20 °C15.10 °C0.52
11:00:0025.30 °C1014.90 hPa57.00 %14.40 km/hWSW25.30 °C16.20 °C0.52
10:45:0025.00 °C1014.60 hPa58.00 %16.20 °C0.52
10:30:0024.60 °C1014.70 hPa59.00 %16.10 °C0.52
10:15:0024.70 °C1014.50 hPa60.00 %16.40 °C0.52
10:00:0024.40 °C1014.30 hPa63.00 %16.90 °C0.52
09:45:0023.60 °C1014.40 hPa66.00 %16.90 °C0.52
09:30:0022.90 °C1014.20 hPa68.00 %16.70 °C0.52
09:15:0022.40 °C1014.10 hPa72.00 %17.10 °C0.52
09:00:0021.60 °C1013.80 hPa73.00 %16.60 °C0.52
08:45:0021.10 °C1013.60 hPa74.00 %16.30 °C0.52
08:30:0020.20 °C1013.70 hPa80.00 %16.60 °C0.52
08:15:0019.60 °C1013.10 hPa84.00 %16.80 °C0.52
08:00:0018.90 °C1013.20 hPa86.00 %16.50 °C0.52
07:45:0017.30 °C1013.10 hPa91.00 %15.80 °C0.52
07:30:0015.80 °C1012.60 hPa92.00 %14.50 °C0.52
07:15:0015.40 °C1012.80 hPa92.00 %14.10 °C0.52
07:00:0015.10 °C1012.50 hPa92.00 %13.80 °C0.52
06:45:0014.80 °C1012.50 hPa92.00 %13.50 °C0.52
06:30:0014.60 °C1012.30 hPa92.00 %13.30 °C0.52
06:15:0014.90 °C1012.50 hPa91.00 %13.40 °C0.52
06:00:0014.90 °C1013.50 hPa91.00 %13.40 °C0.52
05:45:0015.20 °C1013.30 hPa91.00 %13.70 °C0.52
05:30:0015.40 °C1013.70 hPa90.00 %13.80 °C0.52
05:15:0015.80 °C1013.40 hPa90.00 %14.20 °C 
05:00:0015.20 °C1013.20 hPa92.00 %13.90 °C 
04:45:0014.40 °C1012.90 hPa92.00 %13.10 °C 
04:30:0014.40 °C1012.50 hPa92.00 %13.10 °C 
04:15:0014.50 °C1012.30 hPa92.00 %13.20 °C 
04:00:0014.50 °C1012.00 hPa92.00 %13.20 °C 
03:45:0014.50 °C1012.20 hPa92.00 %13.20 °C 
03:30:0014.50 °C1012.20 hPa93.00 %13.40 °C 
03:15:0014.40 °C1012.30 hPa92.00 %13.10 °C 
03:00:0014.40 °C1012.10 hPa92.00 %13.10 °C 
02:45:0014.30 °C1012.10 hPa92.00 %13.00 °C 
02:30:0014.30 °C1012.00 hPa92.00 %13.00 °C 
02:15:0014.30 °C1012.00 hPa92.00 %13.00 °C 
02:00:0014.30 °C1012.20 hPa92.00 %13.00 °C 
01:45:0014.20 °C1012.00 hPa92.00 %12.90 °C 
01:30:0014.10 °C1012.00 hPa92.00 %12.80 °C 
01:15:0014.30 °C1012.10 hPa91.00 %12.90 °C 
01:00:0014.40 °C1012.30 hPa92.00 %13.10 °C 
00:45:0014.50 °C1012.40 hPa92.00 %13.20 °C 
00:30:0014.50 °C1012.60 hPa92.00 %13.20 °C 
00:15:0014.40 °C1012.40 hPa92.00 %10.44 km/hOSO14.40 °C13.10 °C 
00:00:0014.40 °C1012.40 hPa91.00 %13.00 °C 

Permanenter Link zu dieser Seite: Wetter im Erzgebirge am 31.07.2017
Performance-Info: Die Erstellung der Seite / Statistik(en) / Tabelle(n) erforderte 5 Datenbankserver-Abfrage(n) und dauerte 123 Millisekunden. (Dieser Messwert ist von der Gesamt-Auslastung des Servers abhängig.)
Erzgebirge - Wetter | Erzgebirge - Wetter (Mobilgeräte) | Komplette Klimadatenbank